sensor_id;sensor_type;location;lat;lon;timestamp;temperature;humidity
68109;SHT30;54893;49.864;19.084;2023-02-25T00:04:00;6.14;94.95
68109;SHT30;54893;49.864;19.084;2023-02-25T00:09:00;5.83;95.31
68109;SHT30;54893;49.864;19.084;2023-02-25T00:14:01;5.83;95.65
68109;SHT30;54893;49.864;19.084;2023-02-25T00:19:02;5.90;95.62
68109;SHT30;54893;49.864;19.084;2023-02-25T00:24:03;5.78;95.96
68109;SHT30;54893;49.864;19.084;2023-02-25T00:29:03;5.78;96.06
68109;SHT30;54893;49.864;19.084;2023-02-25T00:34:05;5.75;96.28
68109;SHT30;54893;49.864;19.084;2023-02-25T00:39:05;5.83;96.65
68109;SHT30;54893;49.864;19.084;2023-02-25T00:44:06;5.84;96.30
68109;SHT30;54893;49.864;19.084;2023-02-25T00:49:07;5.95;96.37
68109;SHT30;54893;49.864;19.084;2023-02-25T00:54:07;5.97;96.01
68109;SHT30;54893;49.864;19.084;2023-02-25T00:59:07;5.93;96.08
68109;SHT30;54893;49.864;19.084;2023-02-25T01:04:08;5.87;96.44
68109;SHT30;54893;49.864;19.084;2023-02-25T01:09:09;5.94;96.17
68109;SHT30;54893;49.864;19.084;2023-02-25T01:14:19;5.89;96.06
68109;SHT30;54893;49.864;19.084;2023-02-25T01:19:23;5.89;96.02
68109;SHT30;54893;49.864;19.084;2023-02-25T01:24:24;5.83;96.08
68109;SHT30;54893;49.864;19.084;2023-02-25T01:29:33;5.84;95.90
68109;SHT30;54893;49.864;19.084;2023-02-25T01:34:34;5.90;95.70
68109;SHT30;54893;49.864;19.084;2023-02-25T01:39:34;5.90;95.71
68109;SHT30;54893;49.864;19.084;2023-02-25T01:50:18;5.81;95.16
68109;SHT30;54893;49.864;19.084;2023-02-25T01:55:19;5.69;95.48
68109;SHT30;54893;49.864;19.084;2023-02-25T02:00:20;5.83;94.14
68109;SHT30;54893;49.864;19.084;2023-02-25T02:05:24;5.77;93.73
68109;SHT30;54893;49.864;19.084;2023-02-25T02:10:26;5.78;93.57
68109;SHT30;54893;49.864;19.084;2023-02-25T02:15:27;5.77;92.99
68109;SHT30;54893;49.864;19.084;2023-02-25T02:20:57;5.74;92.91
68109;SHT30;54893;49.864;19.084;2023-02-25T02:31:50;5.73;92.39
68109;SHT30;54893;49.864;19.084;2023-02-25T02:47:45;5.70;91.54
68109;SHT30;54893;49.864;19.084;2023-02-25T02:52:51;5.70;91.28
68109;SHT30;54893;49.864;19.084;2023-02-25T02:58:24;5.80;90.79
68109;SHT30;54893;49.864;19.084;2023-02-25T03:03:29;5.94;89.78
68109;SHT30;54893;49.864;19.084;2023-02-25T03:08:58;5.84;90.36
68109;SHT30;54893;49.864;19.084;2023-02-25T03:14:01;5.84;90.05
68109;SHT30;54893;49.864;19.084;2023-02-25T03:19:07;5.83;90.03
68109;SHT30;54893;49.864;19.084;2023-02-25T03:24:16;5.83;90.08
68109;SHT30;54893;49.864;19.084;2023-02-25T03:29:23;5.86;89.88
68109;SHT30;54893;49.864;19.084;2023-02-25T03:34:28;5.69;90.67
68109;SHT30;54893;49.864;19.084;2023-02-25T03:39:32;5.84;88.78
68109;SHT30;54893;49.864;19.084;2023-02-25T03:44:38;6.00;87.89
68109;SHT30;54893;49.864;19.084;2023-02-25T03:54:55;5.44;88.66
68109;SHT30;54893;49.864;19.084;2023-02-25T03:59:56;5.39;88.62
68109;SHT30;54893;49.864;19.084;2023-02-25T04:04:56;5.06;89.84
68109;SHT30;54893;49.864;19.084;2023-02-25T04:09:57;4.38;92.00
68109;SHT30;54893;49.864;19.084;2023-02-25T04:14:57;4.45;91.60
68109;SHT30;54893;49.864;19.084;2023-02-25T04:19:57;4.17;91.78
68109;SHT30;54893;49.864;19.084;2023-02-25T04:24:58;3.77;93.11
68109;SHT30;54893;49.864;19.084;2023-02-25T04:29:58;3.86;92.04
68109;SHT30;54893;49.864;19.084;2023-02-25T04:34:59;3.72;92.82
68109;SHT30;54893;49.864;19.084;2023-02-25T04:40:02;3.38;93.43
68109;SHT30;54893;49.864;19.084;2023-02-25T04:45:05;3.48;93.06
68109;SHT30;54893;49.864;19.084;2023-02-25T04:50:08;3.19;93.99
68109;SHT30;54893;49.864;19.084;2023-02-25T04:55:09;3.18;94.17
68109;SHT30;54893;49.864;19.084;2023-02-25T05:00:19;3.30;93.69
68109;SHT30;54893;49.864;19.084;2023-02-25T05:05:19;2.95;94.99
68109;SHT30;54893;49.864;19.084;2023-02-25T05:10:19;2.88;95.10
68109;SHT30;54893;49.864;19.084;2023-02-25T05:15:20;2.99;94.36
68109;SHT30;54893;49.864;19.084;2023-02-25T05:20:20;2.81;94.85
68109;SHT30;54893;49.864;19.084;2023-02-25T05:25:20;2.78;95.49
68109;SHT30;54893;49.864;19.084;2023-02-25T05:30:21;3.38;91.88
68109;SHT30;54893;49.864;19.084;2023-02-25T05:35:21;3.56;89.41
68109;SHT30;54893;49.864;19.084;2023-02-25T05:40:22;3.64;88.06
68109;SHT30;54893;49.864;19.084;2023-02-25T05:45:22;3.52;88.22
68109;SHT30;54893;49.864;19.084;2023-02-25T05:50:22;3.46;87.74
68109;SHT30;54893;49.864;19.084;2023-02-25T05:55:22;3.43;87.72
68109;SHT30;54893;49.864;19.084;2023-02-25T06:00:23;3.56;86.86
68109;SHT30;54893;49.864;19.084;2023-02-25T06:05:23;3.59;86.01
68109;SHT30;54893;49.864;19.084;2023-02-25T06:10:25;3.60;86.12
68109;SHT30;54893;49.864;19.084;2023-02-25T06:15:25;3.50;86.80
68109;SHT30;54893;49.864;19.084;2023-02-25T06:20:26;3.67;85.83
68109;SHT30;54893;49.864;19.084;2023-02-25T06:25:27;3.79;85.46
68109;SHT30;54893;49.864;19.084;2023-02-25T06:30:30;3.91;84.68
68109;SHT30;54893;49.864;19.084;2023-02-25T06:35:32;4.03;84.37
68109;SHT30;54893;49.864;19.084;2023-02-25T06:40:33;4.22;83.69
68109;SHT30;54893;49.864;19.084;2023-02-25T06:45:35;4.13;84.42
68109;SHT30;54893;49.864;19.084;2023-02-25T06:50:38;4.17;83.95
68109;SHT30;54893;49.864;19.084;2023-02-25T06:55:38;4.16;84.65
68109;SHT30;54893;49.864;19.084;2023-02-25T07:00:39;4.17;84.59
68109;SHT30;54893;49.864;19.084;2023-02-25T07:05:42;4.20;83.16
68109;SHT30;54893;49.864;19.084;2023-02-25T07:10:42;4.21;82.28
68109;SHT30;54893;49.864;19.084;2023-02-25T07:15:42;4.22;82.24
68109;SHT30;54893;49.864;19.084;2023-02-25T07:20:43;4.17;82.27
68109;SHT30;54893;49.864;19.084;2023-02-25T07:25:43;4.55;80.91
68109;SHT30;54893;49.864;19.084;2023-02-25T07:30:43;5.08;79.42
68109;SHT30;54893;49.864;19.084;2023-02-25T07:35:44;4.78;79.89
68109;SHT30;54893;49.864;19.084;2023-02-25T07:40:45;4.65;80.82
68109;SHT30;54893;49.864;19.084;2023-02-25T07:45:48;4.67;80.86
68109;SHT30;54893;49.864;19.084;2023-02-25T07:50:48;5.06;79.24
68109;SHT30;54893;49.864;19.084;2023-02-25T07:55:49;4.79;80.64
68109;SHT30;54893;49.864;19.084;2023-02-25T08:00:49;5.02;78.31
68109;SHT30;54893;49.864;19.084;2023-02-25T08:05:50;5.64;77.37
68109;SHT30;54893;49.864;19.084;2023-02-25T08:10:53;5.56;77.19
68109;SHT30;54893;49.864;19.084;2023-02-25T08:15:53;5.59;76.18
68109;SHT30;54893;49.864;19.084;2023-02-25T08:20:53;5.67;76.24
68109;SHT30;54893;49.864;19.084;2023-02-25T08:25:56;5.47;75.51
68109;SHT30;54893;49.864;19.084;2023-02-25T08:30:57;5.33;75.41
68109;SHT30;54893;49.864;19.084;2023-02-25T08:36:28;5.47;76.44
68109;SHT30;54893;49.864;19.084;2023-02-25T08:41:29;5.61;73.94
68109;SHT30;54893;49.864;19.084;2023-02-25T08:46:31;5.95;73.02
68109;SHT30;54893;49.864;19.084;2023-02-25T08:51:32;5.87;72.73
68109;SHT30;54893;49.864;19.084;2023-02-25T08:56:34;5.83;73.06
68109;SHT30;54893;49.864;19.084;2023-02-25T09:01:35;5.75;73.29
68109;SHT30;54893;49.864;19.084;2023-02-25T09:06:44;5.90;73.99
68109;SHT30;54893;49.864;19.084;2023-02-25T09:11:47;5.74;72.20
68109;SHT30;54893;49.864;19.084;2023-02-25T09:16:48;5.73;71.58
68109;SHT30;54893;49.864;19.084;2023-02-25T09:21:48;5.56;71.93
68109;SHT30;54893;49.864;19.084;2023-02-25T09:26:49;5.35;73.01
68109;SHT30;54893;49.864;19.084;2023-02-25T09:31:49;5.60;72.37
68109;SHT30;54893;49.864;19.084;2023-02-25T09:36:50;5.54;71.44
68109;SHT30;54893;49.864;19.084;2023-02-25T09:42:01;5.61;72.10
68109;SHT30;54893;49.864;19.084;2023-02-25T09:52:44;6.17;69.94
68109;SHT30;54893;49.864;19.084;2023-02-25T09:57:54;6.39;70.43
68109;SHT30;54893;49.864;19.084;2023-02-25T10:24:32;7.16;69.45
68109;SHT30;54893;49.864;19.084;2023-02-25T10:29:39;7.03;68.99
68109;SHT30;54893;49.864;19.084;2023-02-25T10:34:41;6.83;69.48
68109;SHT30;54893;49.864;19.084;2023-02-25T10:39:41;6.69;69.93
68109;SHT30;54893;49.864;19.084;2023-02-25T10:44:42;6.92;70.49
68109;SHT30;54893;49.864;19.084;2023-02-25T10:55:25;6.85;70.12
68109;SHT30;54893;49.864;19.084;2023-02-25T11:00:28;7.05;69.89
68109;SHT30;54893;49.864;19.084;2023-02-25T11:10:33;7.37;69.19
68109;SHT30;54893;49.864;19.084;2023-02-25T11:15:35;6.88;69.38
68109;SHT30;54893;49.864;19.084;2023-02-25T11:20:36;6.89;70.05
68109;SHT30;54893;49.864;19.084;2023-02-25T11:25:41;6.58;70.10
68109;SHT30;54893;49.864;19.084;2023-02-25T11:30:43;6.53;70.45
68109;SHT30;54893;49.864;19.084;2023-02-25T11:35:43;6.45;70.75
68109;SHT30;54893;49.864;19.084;2023-02-25T11:40:44;6.28;69.75
68109;SHT30;54893;49.864;19.084;2023-02-25T11:45:54;6.38;69.82
68109;SHT30;54893;49.864;19.084;2023-02-25T11:51:07;6.04;70.55
68109;SHT30;54893;49.864;19.084;2023-02-25T12:01:29;6.03;70.82
68109;SHT30;54893;49.864;19.084;2023-02-25T12:28:14;6.32;67.62
68109;SHT30;54893;49.864;19.084;2023-02-25T13:00:13;5.51;71.33
68109;SHT30;54893;49.864;19.084;2023-02-25T13:11:26;3.48;86.01
68109;SHT30;54893;49.864;19.084;2023-02-25T13:16:51;2.87;88.80
68109;SHT30;54893;49.864;19.084;2023-02-25T13:22:16;2.60;89.94
68109;SHT30;54893;49.864;19.084;2023-02-25T13:27:32;2.65;90.26
68109;SHT30;54893;49.864;19.084;2023-02-25T13:33:09;2.77;89.84
68109;SHT30;54893;49.864;19.084;2023-02-25T13:38:32;2.47;91.36
68109;SHT30;54893;49.864;19.084;2023-02-25T13:43:46;2.33;92.43
68109;SHT30;54893;49.864;19.084;2023-02-25T14:09:44;2.52;92.53
68109;SHT30;54893;49.864;19.084;2023-02-25T14:14:53;2.36;92.31
68109;SHT30;54893;49.864;19.084;2023-02-25T14:20:23;2.11;93.30
68109;SHT30;54893;49.864;19.084;2023-02-25T14:31:29;1.79;94.50
68109;SHT30;54893;49.864;19.084;2023-02-25T14:58:28;1.49;94.87
68109;SHT30;54893;49.864;19.084;2023-02-25T15:30:25;1.73;94.87
68109;SHT30;54893;49.864;19.084;2023-02-25T15:40:52;1.80;93.46
68109;SHT30;54893;49.864;19.084;2023-02-25T15:51:10;1.64;93.10
68109;SHT30;54893;49.864;19.084;2023-02-25T16:06:38;1.38;93.54
68109;SHT30;54893;49.864;19.084;2023-02-25T16:16:58;1.48;93.73
68109;SHT30;54893;49.864;19.084;2023-02-25T16:22:03;1.64;93.30
68109;SHT30;54893;49.864;19.084;2023-02-25T16:42:50;2.21;86.44
68109;SHT30;54893;49.864;19.084;2023-02-25T16:48:05;2.02;87.32
68109;SHT30;54893;49.864;19.084;2023-02-25T16:53:16;1.93;87.66
68109;SHT30;54893;49.864;19.084;2023-02-25T16:58:19;2.13;87.35
68109;SHT30;54893;49.864;19.084;2023-02-25T17:03:22;2.10;87.74
68109;SHT30;54893;49.864;19.084;2023-02-25T17:08:23;2.06;87.92
68109;SHT30;54893;49.864;19.084;2023-02-25T17:13:39;2.03;88.34
68109;SHT30;54893;49.864;19.084;2023-02-25T17:18:44;1.96;88.86
68109;SHT30;54893;49.864;19.084;2023-02-25T17:23:46;1.99;88.82
68109;SHT30;54893;49.864;19.084;2023-02-25T17:28:51;1.93;88.95
68109;SHT30;54893;49.864;19.084;2023-02-25T17:38:56;2.03;87.04
68109;SHT30;54893;49.864;19.084;2023-02-25T17:43:57;2.10;87.02
68109;SHT30;54893;49.864;19.084;2023-02-25T17:49:00;1.80;87.90
68109;SHT30;54893;49.864;19.084;2023-02-25T17:54:05;1.86;87.28
68109;SHT30;54893;49.864;19.084;2023-02-25T17:59:26;1.69;88.23
68109;SHT30;54893;49.864;19.084;2023-02-25T18:04:38;1.73;88.76
68109;SHT30;54893;49.864;19.084;2023-02-25T18:09:39;1.74;88.24
68109;SHT30;54893;49.864;19.084;2023-02-25T18:14:42;1.55;89.34
68109;SHT30;54893;49.864;19.084;2023-02-25T18:19:44;1.63;88.89
68109;SHT30;54893;49.864;19.084;2023-02-25T18:24:51;1.62;89.04
68109;SHT30;54893;49.864;19.084;2023-02-25T18:29:53;1.84;88.25
68109;SHT30;54893;49.864;19.084;2023-02-25T18:34:55;1.97;86.62
68109;SHT30;54893;49.864;19.084;2023-02-25T18:39:55;1.89;85.89
68109;SHT30;54893;49.864;19.084;2023-02-25T18:44:56;1.67;86.54
68109;SHT30;54893;49.864;19.084;2023-02-25T18:49:56;1.82;86.80
68109;SHT30;54893;49.864;19.084;2023-02-25T18:54:56;1.72;86.55
68109;SHT30;54893;49.864;19.084;2023-02-25T18:59:57;1.69;86.86
68109;SHT30;54893;49.864;19.084;2023-02-25T19:04:57;1.49;87.58
68109;SHT30;54893;49.864;19.084;2023-02-25T19:10:00;1.42;87.92
68109;SHT30;54893;49.864;19.084;2023-02-25T19:15:04;1.66;87.49
68109;SHT30;54893;49.864;19.084;2023-02-25T19:20:05;1.46;87.82
68109;SHT30;54893;49.864;19.084;2023-02-25T19:25:16;1.64;87.32
68109;SHT30;54893;49.864;19.084;2023-02-25T19:30:23;1.56;87.66
68109;SHT30;54893;49.864;19.084;2023-02-25T19:35:27;1.60;87.37
68109;SHT30;54893;49.864;19.084;2023-02-25T19:40:27;1.48;87.63
68109;SHT30;54893;49.864;19.084;2023-02-25T19:45:28;1.49;87.96
68109;SHT30;54893;49.864;19.084;2023-02-25T19:50:28;1.38;89.12
68109;SHT30;54893;49.864;19.084;2023-02-25T19:55:31;1.58;88.73
68109;SHT30;54893;49.864;19.084;2023-02-25T20:00:32;1.55;87.48
68109;SHT30;54893;49.864;19.084;2023-02-25T20:05:33;1.42;87.70
68109;SHT30;54893;49.864;19.084;2023-02-25T20:10:34;1.40;88.20
68109;SHT30;54893;49.864;19.084;2023-02-25T20:15:34;1.34;88.74
68109;SHT30;54893;49.864;19.084;2023-02-25T20:20:34;1.31;88.98
68109;SHT30;54893;49.864;19.084;2023-02-25T20:25:36;1.24;89.79
68109;SHT30;54893;49.864;19.084;2023-02-25T20:30:36;1.08;90.49
68109;SHT30;54893;49.864;19.084;2023-02-25T20:35:39;1.04;91.10
68109;SHT30;54893;49.864;19.084;2023-02-25T20:40:40;0.95;91.38
68109;SHT30;54893;49.864;19.084;2023-02-25T20:45:40;0.89;91.79
68109;SHT30;54893;49.864;19.084;2023-02-25T20:50:41;0.77;92.39
68109;SHT30;54893;49.864;19.084;2023-02-25T20:55:41;0.81;92.65
68109;SHT30;54893;49.864;19.084;2023-02-25T21:00:42;0.94;92.63
68109;SHT30;54893;49.864;19.084;2023-02-25T21:05:42;0.78;93.51
68109;SHT30;54893;49.864;19.084;2023-02-25T21:10:43;0.87;93.69
68109;SHT30;54893;49.864;19.084;2023-02-25T21:15:43;0.85;94.09
68109;SHT30;54893;49.864;19.084;2023-02-25T21:20:43;0.81;93.88
68109;SHT30;54893;49.864;19.084;2023-02-25T21:25:44;0.65;94.41
68109;SHT30;54893;49.864;19.084;2023-02-25T21:30:46;0.62;94.52
68109;SHT30;54893;49.864;19.084;2023-02-25T21:35:53;0.53;95.17
68109;SHT30;54893;49.864;19.084;2023-02-25T21:40:55;0.50;95.11
68109;SHT30;54893;49.864;19.084;2023-02-25T21:45:57;0.46;95.39
68109;SHT30;54893;49.864;19.084;2023-02-25T21:50:58;0.39;95.96
68109;SHT30;54893;49.864;19.084;2023-02-25T21:56:08;0.39;96.05
68109;SHT30;54893;49.864;19.084;2023-02-25T22:01:20;0.37;95.82
68109;SHT30;54893;49.864;19.084;2023-02-25T22:06:21;0.41;95.59
68109;SHT30;54893;49.864;19.084;2023-02-25T22:11:28;0.46;96.04
68109;SHT30;54893;49.864;19.084;2023-02-25T22:16:28;0.54;95.85
68109;SHT30;54893;49.864;19.084;2023-02-25T22:21:31;0.40;95.80
68109;SHT30;54893;49.864;19.084;2023-02-25T22:26:34;0.53;95.40
68109;SHT30;54893;49.864;19.084;2023-02-25T22:31:34;0.47;96.00
68109;SHT30;54893;49.864;19.084;2023-02-25T22:36:35;0.44;95.61
68109;SHT30;54893;49.864;19.084;2023-02-25T22:41:36;0.33;96.20
68109;SHT30;54893;49.864;19.084;2023-02-25T22:46:39;0.27;96.76
68109;SHT30;54893;49.864;19.084;2023-02-25T22:51:42;0.30;96.27
68109;SHT30;54893;49.864;19.084;2023-02-25T22:56:43;0.47;95.49
68109;SHT30;54893;49.864;19.084;2023-02-25T23:01:44;0.30;96.47
68109;SHT30;54893;49.864;19.084;2023-02-25T23:06:44;0.40;95.93
68109;SHT30;54893;49.864;19.084;2023-02-25T23:11:45;0.46;96.18
68109;SHT30;54893;49.864;19.084;2023-02-25T23:16:45;0.39;96.27
68109;SHT30;54893;49.864;19.084;2023-02-25T23:21:46;0.39;96.38
68109;SHT30;54893;49.864;19.084;2023-02-25T23:26:46;0.31;96.27
68109;SHT30;54893;49.864;19.084;2023-02-25T23:31:49;0.43;96.06
68109;SHT30;54893;49.864;19.084;2023-02-25T23:36:53;0.33;96.22
68109;SHT30;54893;49.864;19.084;2023-02-25T23:41:54;0.31;96.36
68109;SHT30;54893;49.864;19.084;2023-02-25T23:46:54;0.49;95.86
68109;SHT30;54893;49.864;19.084;2023-02-25T23:51:54;0.43;95.89
68109;SHT30;54893;49.864;19.084;2023-02-25T23:56:55;0.23;96.41
